sensor_id;sensor_type;location;lat;lon;timestamp;P1;durP1;ratioP1;P2;durP2;ratioP2
75971;SDS011;64651;47.540;19.088;2022-12-29T00:03:47;26.97;;;11.40;;
75971;SDS011;64651;47.540;19.088;2022-12-29T00:08:49;28.77;;;11.85;;
75971;SDS011;64651;47.540;19.088;2022-12-29T00:13:52;26.60;;;11.33;;
75971;SDS011;64651;47.540;19.088;2022-12-29T00:19:26;26.52;;;11.07;;
75971;SDS011;64651;47.540;19.088;2022-12-29T00:24:47;27.02;;;11.45;;
75971;SDS011;64651;47.540;19.088;2022-12-29T00:30:09;30.83;;;12.20;;
75971;SDS011;64651;47.540;19.088;2022-12-29T00:36:06;32.35;;;12.57;;
75971;SDS011;64651;47.540;19.088;2022-12-29T00:41:03;28.93;;;11.43;;
75971;SDS011;64651;47.540;19.088;2022-12-29T00:46:23;27.80;;;11.70;;
75971;SDS011;64651;47.540;19.088;2022-12-29T00:51:25;30.80;;;12.43;;
75971;SDS011;64651;47.540;19.088;2022-12-29T00:56:28;27.17;;;11.50;;
75971;SDS011;64651;47.540;19.088;2022-12-29T01:01:30;29.83;;;11.88;;
75971;SDS011;64651;47.540;19.088;2022-12-29T01:06:32;32.00;;;11.80;;
75971;SDS011;64651;47.540;19.088;2022-12-29T01:11:35;27.92;;;12.02;;
75971;SDS011;64651;47.540;19.088;2022-12-29T01:16:37;26.42;;;11.75;;
75971;SDS011;64651;47.540;19.088;2022-12-29T01:21:39;27.67;;;11.60;;
75971;SDS011;64651;47.540;19.088;2022-12-29T01:26:42;31.08;;;12.60;;
75971;SDS011;64651;47.540;19.088;2022-12-29T01:31:45;28.10;;;12.30;;
75971;SDS011;64651;47.540;19.088;2022-12-29T01:36:47;28.33;;;11.45;;
75971;SDS011;64651;47.540;19.088;2022-12-29T01:41:49;29.05;;;12.07;;
75971;SDS011;64651;47.540;19.088;2022-12-29T01:46:53;25.60;;;10.90;;
75971;SDS011;64651;47.540;19.088;2022-12-29T01:51:57;29.50;;;11.90;;
75971;SDS011;64651;47.540;19.088;2022-12-29T01:57:07;30.53;;;11.37;;
75971;SDS011;64651;47.540;19.088;2022-12-29T02:02:13;25.75;;;11.43;;
75971;SDS011;64651;47.540;19.088;2022-12-29T02:07:19;25.70;;;10.77;;
75971;SDS011;64651;47.540;19.088;2022-12-29T02:12:23;25.43;;;11.13;;
75971;SDS011;64651;47.540;19.088;2022-12-29T02:28:49;29.70;;;12.45;;
75971;SDS011;64651;47.540;19.088;2022-12-29T02:39:04;28.47;;;11.93;;
75971;SDS011;64651;47.540;19.088;2022-12-29T02:44:15;29.92;;;12.30;;
75971;SDS011;64651;47.540;19.088;2022-12-29T02:50:07;33.67;;;12.37;;
75971;SDS011;64651;47.540;19.088;2022-12-29T02:55:19;29.60;;;12.75;;
75971;SDS011;64651;47.540;19.088;2022-12-29T03:00:21;27.92;;;11.57;;
75971;SDS011;64651;47.540;19.088;2022-12-29T03:11:02;26.90;;;11.25;;
75971;SDS011;64651;47.540;19.088;2022-12-29T03:16:19;26.83;;;12.17;;
75971;SDS011;64651;47.540;19.088;2022-12-29T03:21:42;27.83;;;11.43;;
75971;SDS011;64651;47.540;19.088;2022-12-29T03:27:05;32.60;;;12.52;;
75971;SDS011;64651;47.540;19.088;2022-12-29T03:32:11;28.77;;;12.67;;
75971;SDS011;64651;47.540;19.088;2022-12-29T03:37:16;26.42;;;11.65;;
75971;SDS011;64651;47.540;19.088;2022-12-29T03:42:21;28.57;;;12.27;;
75971;SDS011;64651;47.540;19.088;2022-12-29T03:47:27;29.65;;;12.50;;
75971;SDS011;64651;47.540;19.088;2022-12-29T03:52:29;33.50;;;13.48;;
75971;SDS011;64651;47.540;19.088;2022-12-29T03:57:31;33.37;;;12.30;;
75971;SDS011;64651;47.540;19.088;2022-12-29T04:02:33;36.00;;;14.27;;
75971;SDS011;64651;47.540;19.088;2022-12-29T04:07:36;36.60;;;15.17;;
75971;SDS011;64651;47.540;19.088;2022-12-29T04:12:38;33.97;;;15.13;;
75971;SDS011;64651;47.540;19.088;2022-12-29T04:17:40;34.33;;;15.48;;
75971;SDS011;64651;47.540;19.088;2022-12-29T04:22:42;38.33;;;14.90;;
75971;SDS011;64651;47.540;19.088;2022-12-29T04:27:44;39.25;;;16.00;;
75971;SDS011;64651;47.540;19.088;2022-12-29T04:32:46;35.43;;;14.77;;
75971;SDS011;64651;47.540;19.088;2022-12-29T04:37:48;33.88;;;15.52;;
75971;SDS011;64651;47.540;19.088;2022-12-29T04:42:51;39.80;;;15.18;;
75971;SDS011;64651;47.540;19.088;2022-12-29T04:47:53;36.00;;;14.67;;
75971;SDS011;64651;47.540;19.088;2022-12-29T04:52:55;37.38;;;15.20;;
75971;SDS011;64651;47.540;19.088;2022-12-29T04:57:58;35.57;;;14.67;;
75971;SDS011;64651;47.540;19.088;2022-12-29T05:03:00;33.45;;;14.70;;
75971;SDS011;64651;47.540;19.088;2022-12-29T05:08:03;31.62;;;14.38;;
75971;SDS011;64651;47.540;19.088;2022-12-29T05:13:05;34.30;;;14.53;;
75971;SDS011;64651;47.540;19.088;2022-12-29T05:18:08;34.03;;;14.35;;
75971;SDS011;64651;47.540;19.088;2022-12-29T05:23:10;35.27;;;14.43;;
75971;SDS011;64651;47.540;19.088;2022-12-29T05:28:12;32.88;;;14.40;;
75971;SDS011;64651;47.540;19.088;2022-12-29T05:33:16;32.13;;;13.38;;
75971;SDS011;64651;47.540;19.088;2022-12-29T05:38:19;33.10;;;13.60;;
75971;SDS011;64651;47.540;19.088;2022-12-29T05:43:21;33.15;;;14.02;;
75971;SDS011;64651;47.540;19.088;2022-12-29T05:48:23;32.67;;;13.90;;
75971;SDS011;64651;47.540;19.088;2022-12-29T05:53:25;38.58;;;14.65;;
75971;SDS011;64651;47.540;19.088;2022-12-29T05:58:27;30.67;;;13.00;;
75971;SDS011;64651;47.540;19.088;2022-12-29T06:03:30;34.53;;;14.70;;
75971;SDS011;64651;47.540;19.088;2022-12-29T06:08:33;32.75;;;14.73;;
75971;SDS011;64651;47.540;19.088;2022-12-29T06:13:35;31.33;;;14.03;;
75971;SDS011;64651;47.540;19.088;2022-12-29T06:18:38;34.85;;;15.15;;
75971;SDS011;64651;47.540;19.088;2022-12-29T06:23:40;35.17;;;14.73;;
75971;SDS011;64651;47.540;19.088;2022-12-29T06:28:42;34.20;;;14.50;;
75971;SDS011;64651;47.540;19.088;2022-12-29T06:33:44;37.53;;;15.05;;
75971;SDS011;64651;47.540;19.088;2022-12-29T06:38:50;34.90;;;14.70;;
75971;SDS011;64651;47.540;19.088;2022-12-29T06:43:54;33.58;;;14.25;;
75971;SDS011;64651;47.540;19.088;2022-12-29T06:48:56;37.70;;;14.98;;
75971;SDS011;64651;47.540;19.088;2022-12-29T06:53:58;37.30;;;14.67;;
75971;SDS011;64651;47.540;19.088;2022-12-29T06:59:00;38.25;;;15.40;;
75971;SDS011;64651;47.540;19.088;2022-12-29T07:04:03;33.57;;;13.93;;
75971;SDS011;64651;47.540;19.088;2022-12-29T07:09:05;36.25;;;15.18;;
75971;SDS011;64651;47.540;19.088;2022-12-29T07:14:09;38.10;;;15.52;;
75971;SDS011;64651;47.540;19.088;2022-12-29T07:19:12;37.93;;;15.03;;
75971;SDS011;64651;47.540;19.088;2022-12-29T07:29:38;40.67;;;16.07;;
75971;SDS011;64651;47.540;19.088;2022-12-29T07:34:40;37.88;;;15.65;;
75971;SDS011;64651;47.540;19.088;2022-12-29T07:39:43;36.75;;;15.07;;
75971;SDS011;64651;47.540;19.088;2022-12-29T07:44:45;36.20;;;14.40;;
75971;SDS011;64651;47.540;19.088;2022-12-29T07:49:47;34.72;;;14.63;;
75971;SDS011;64651;47.540;19.088;2022-12-29T07:54:49;36.43;;;15.23;;
75971;SDS011;64651;47.540;19.088;2022-12-29T07:59:52;37.10;;;15.70;;
75971;SDS011;64651;47.540;19.088;2022-12-29T08:04:54;42.47;;;15.90;;
75971;SDS011;64651;47.540;19.088;2022-12-29T08:09:56;39.43;;;16.77;;
75971;SDS011;64651;47.540;19.088;2022-12-29T08:14:59;38.08;;;16.58;;
75971;SDS011;64651;47.540;19.088;2022-12-29T08:20:01;40.53;;;16.77;;
75971;SDS011;64651;47.540;19.088;2022-12-29T08:25:04;39.25;;;16.17;;
75971;SDS011;64651;47.540;19.088;2022-12-29T08:30:07;41.83;;;17.60;;
75971;SDS011;64651;47.540;19.088;2022-12-29T08:35:09;42.00;;;16.67;;
75971;SDS011;64651;47.540;19.088;2022-12-29T08:40:12;43.83;;;17.30;;
75971;SDS011;64651;47.540;19.088;2022-12-29T08:45:15;36.93;;;16.13;;
75971;SDS011;64651;47.540;19.088;2022-12-29T08:50:17;37.17;;;16.48;;
75971;SDS011;64651;47.540;19.088;2022-12-29T08:55:19;39.88;;;16.73;;
75971;SDS011;64651;47.540;19.088;2022-12-29T09:00:22;40.50;;;16.47;;
75971;SDS011;64651;47.540;19.088;2022-12-29T09:05:24;39.13;;;16.52;;
75971;SDS011;64651;47.540;19.088;2022-12-29T09:10:27;41.13;;;16.00;;
75971;SDS011;64651;47.540;19.088;2022-12-29T09:15:29;39.58;;;17.42;;
75971;SDS011;64651;47.540;19.088;2022-12-29T09:20:31;40.47;;;18.62;;
75971;SDS011;64651;47.540;19.088;2022-12-29T09:25:33;42.63;;;17.87;;
75971;SDS011;64651;47.540;19.088;2022-12-29T09:30:36;38.72;;;17.80;;
75971;SDS011;64651;47.540;19.088;2022-12-29T09:35:41;40.10;;;17.57;;
75971;SDS011;64651;47.540;19.088;2022-12-29T09:40:57;38.67;;;17.92;;
75971;SDS011;64651;47.540;19.088;2022-12-29T09:46:25;42.17;;;18.95;;
75971;SDS011;64651;47.540;19.088;2022-12-29T09:51:49;40.30;;;18.60;;
75971;SDS011;64651;47.540;19.088;2022-12-29T09:56:54;41.25;;;16.98;;
75971;SDS011;64651;47.540;19.088;2022-12-29T10:02:00;41.20;;;18.53;;
75971;SDS011;64651;47.540;19.088;2022-12-29T10:17:54;43.97;;;19.40;;
75971;SDS011;64651;47.540;19.088;2022-12-29T10:23:23;41.13;;;19.80;;
75971;SDS011;64651;47.540;19.088;2022-12-29T10:33:35;37.20;;;18.62;;
75971;SDS011;64651;47.540;19.088;2022-12-29T10:38:44;40.12;;;18.87;;
75971;SDS011;64651;47.540;19.088;2022-12-29T10:43:54;40.93;;;19.90;;
75971;SDS011;64651;47.540;19.088;2022-12-29T10:48:59;38.10;;;21.05;;
75971;SDS011;64651;47.540;19.088;2022-12-29T10:54:03;37.17;;;19.27;;
75971;SDS011;64651;47.540;19.088;2022-12-29T10:59:23;35.03;;;20.58;;
75971;SDS011;64651;47.540;19.088;2022-12-29T11:15:44;36.30;;;22.85;;
75971;SDS011;64651;47.540;19.088;2022-12-29T11:20:49;35.70;;;22.07;;
75971;SDS011;64651;47.540;19.088;2022-12-29T11:31:17;35.97;;;23.10;;
75971;SDS011;64651;47.540;19.088;2022-12-29T11:36:23;34.23;;;22.83;;
75971;SDS011;64651;47.540;19.088;2022-12-29T11:41:29;35.00;;;23.73;;
75971;SDS011;64651;47.540;19.088;2022-12-29T11:46:34;34.53;;;23.17;;
75971;SDS011;64651;47.540;19.088;2022-12-29T11:51:43;35.33;;;22.87;;
75971;SDS011;64651;47.540;19.088;2022-12-29T11:56:47;32.88;;;22.70;;
75971;SDS011;64651;47.540;19.088;2022-12-29T12:01:53;36.20;;;24.37;;
75971;SDS011;64651;47.540;19.088;2022-12-29T12:12:24;36.30;;;22.87;;
75971;SDS011;64651;47.540;19.088;2022-12-29T12:17:37;36.72;;;23.38;;
75971;SDS011;64651;47.540;19.088;2022-12-29T12:22:52;37.92;;;23.25;;
75971;SDS011;64651;47.540;19.088;2022-12-29T13:00:07;38.80;;;23.10;;
75971;SDS011;64651;47.540;19.088;2022-12-29T13:10:58;35.80;;;22.23;;
75971;SDS011;64651;47.540;19.088;2022-12-29T13:16:14;55.20;;;30.58;;
75971;SDS011;64651;47.540;19.088;2022-12-29T13:32:49;36.50;;;21.20;;
75971;SDS011;64651;47.540;19.088;2022-12-29T13:38:09;37.83;;;22.05;;
75971;SDS011;64651;47.540;19.088;2022-12-29T13:43:19;41.78;;;23.30;;
75971;SDS011;64651;47.540;19.088;2022-12-29T13:48:24;39.83;;;21.47;;
75971;SDS011;64651;47.540;19.088;2022-12-29T14:05:35;39.05;;;21.73;;
75971;SDS011;64651;47.540;19.088;2022-12-29T14:15:40;38.10;;;21.23;;
75971;SDS011;64651;47.540;19.088;2022-12-29T14:36:21;45.58;;;21.52;;
75971;SDS011;64651;47.540;19.088;2022-12-29T14:41:32;39.53;;;20.30;;
75971;SDS011;64651;47.540;19.088;2022-12-29T14:52:27;42.87;;;20.17;;
75971;SDS011;64651;47.540;19.088;2022-12-29T14:57:25;46.13;;;21.58;;
75971;SDS011;64651;47.540;19.088;2022-12-29T15:02:31;43.00;;;20.10;;
75971;SDS011;64651;47.540;19.088;2022-12-29T15:07:40;43.60;;;19.70;;
75971;SDS011;64651;47.540;19.088;2022-12-29T15:12:47;45.40;;;20.65;;
75971;SDS011;64651;47.540;19.088;2022-12-29T15:17:54;50.60;;;22.23;;
75971;SDS011;64651;47.540;19.088;2022-12-29T15:23:03;47.53;;;21.73;;
75971;SDS011;64651;47.540;19.088;2022-12-29T15:28:12;46.13;;;21.27;;
75971;SDS011;64651;47.540;19.088;2022-12-29T15:33:18;48.03;;;21.17;;
75971;SDS011;64651;47.540;19.088;2022-12-29T15:38:23;50.28;;;21.33;;
75971;SDS011;64651;47.540;19.088;2022-12-29T15:48:51;50.05;;;22.25;;
75971;SDS011;64651;47.540;19.088;2022-12-29T15:53:53;49.58;;;21.27;;
75971;SDS011;64651;47.540;19.088;2022-12-29T15:58:56;52.87;;;22.03;;
75971;SDS011;64651;47.540;19.088;2022-12-29T16:03:59;52.35;;;21.92;;
75971;SDS011;64651;47.540;19.088;2022-12-29T16:09:28;59.80;;;22.30;;
75971;SDS011;64651;47.540;19.088;2022-12-29T16:14:33;52.22;;;21.62;;
75971;SDS011;64651;47.540;19.088;2022-12-29T16:19:43;54.17;;;20.92;;
75971;SDS011;64651;47.540;19.088;2022-12-29T16:35:44;52.67;;;21.50;;
75971;SDS011;64651;47.540;19.088;2022-12-29T16:51:33;53.47;;;21.97;;
75971;SDS011;64651;47.540;19.088;2022-12-29T16:56:38;56.85;;;23.75;;
75971;SDS011;64651;47.540;19.088;2022-12-29T17:01:46;55.57;;;22.97;;
75971;SDS011;64651;47.540;19.088;2022-12-29T17:06:48;58.05;;;23.80;;
75971;SDS011;64651;47.540;19.088;2022-12-29T17:11:55;60.63;;;23.67;;
75971;SDS011;64651;47.540;19.088;2022-12-29T17:17:13;52.77;;;22.73;;
75971;SDS011;64651;47.540;19.088;2022-12-29T17:22:23;54.53;;;22.98;;
75971;SDS011;64651;47.540;19.088;2022-12-29T17:27:48;59.47;;;24.37;;
75971;SDS011;64651;47.540;19.088;2022-12-29T17:32:58;61.63;;;23.58;;
75971;SDS011;64651;47.540;19.088;2022-12-29T17:38:20;61.47;;;24.35;;
75971;SDS011;64651;47.540;19.088;2022-12-29T17:43:27;64.80;;;24.80;;
75971;SDS011;64651;47.540;19.088;2022-12-29T17:54:20;56.67;;;23.97;;
75971;SDS011;64651;47.540;19.088;2022-12-29T17:59:26;64.37;;;24.87;;
75971;SDS011;64651;47.540;19.088;2022-12-29T18:04:29;57.33;;;23.55;;
75971;SDS011;64651;47.540;19.088;2022-12-29T18:09:37;59.10;;;24.70;;
75971;SDS011;64651;47.540;19.088;2022-12-29T18:14:39;59.63;;;24.73;;
75971;SDS011;64651;47.540;19.088;2022-12-29T18:19:42;62.53;;;24.93;;
75971;SDS011;64651;47.540;19.088;2022-12-29T18:24:44;65.22;;;25.98;;
75971;SDS011;64651;47.540;19.088;2022-12-29T18:29:47;63.72;;;25.37;;
75971;SDS011;64651;47.540;19.088;2022-12-29T18:34:50;59.93;;;23.43;;
75971;SDS011;64651;47.540;19.088;2022-12-29T18:39:52;58.83;;;25.83;;
75971;SDS011;64651;47.540;19.088;2022-12-29T18:44:54;56.97;;;24.37;;
75971;SDS011;64651;47.540;19.088;2022-12-29T18:49:56;59.00;;;25.37;;
75971;SDS011;64651;47.540;19.088;2022-12-29T18:54:58;64.12;;;25.83;;
75971;SDS011;64651;47.540;19.088;2022-12-29T19:00:01;59.83;;;25.47;;
75971;SDS011;64651;47.540;19.088;2022-12-29T19:05:24;58.00;;;25.15;;
75971;SDS011;64651;47.540;19.088;2022-12-29T19:10:29;60.13;;;24.67;;
75971;SDS011;64651;47.540;19.088;2022-12-29T19:15:35;66.75;;;26.65;;
75971;SDS011;64651;47.540;19.088;2022-12-29T19:20:41;60.58;;;26.15;;
75971;SDS011;64651;47.540;19.088;2022-12-29T19:25:45;59.53;;;26.20;;
75971;SDS011;64651;47.540;19.088;2022-12-29T19:30:47;56.85;;;25.58;;
75971;SDS011;64651;47.540;19.088;2022-12-29T19:35:57;60.00;;;25.20;;
75971;SDS011;64651;47.540;19.088;2022-12-29T19:41:00;57.03;;;25.75;;
75971;SDS011;64651;47.540;19.088;2022-12-29T19:46:08;63.58;;;26.95;;
75971;SDS011;64651;47.540;19.088;2022-12-29T19:51:12;59.43;;;25.83;;
75971;SDS011;64651;47.540;19.088;2022-12-29T19:56:19;61.70;;;25.45;;
75971;SDS011;64651;47.540;19.088;2022-12-29T20:01:22;59.60;;;24.73;;
75971;SDS011;64651;47.540;19.088;2022-12-29T20:06:25;57.67;;;24.67;;
75971;SDS011;64651;47.540;19.088;2022-12-29T20:11:27;62.70;;;27.70;;
75971;SDS011;64651;47.540;19.088;2022-12-29T20:16:30;58.03;;;26.00;;
75971;SDS011;64651;47.540;19.088;2022-12-29T20:21:32;59.03;;;26.08;;
75971;SDS011;64651;47.540;19.088;2022-12-29T20:26:34;58.93;;;25.43;;
75971;SDS011;64651;47.540;19.088;2022-12-29T20:31:37;57.47;;;24.70;;
75971;SDS011;64651;47.540;19.088;2022-12-29T20:36:41;59.25;;;26.10;;
75971;SDS011;64651;47.540;19.088;2022-12-29T20:41:45;56.53;;;24.00;;
75971;SDS011;64651;47.540;19.088;2022-12-29T20:46:47;62.03;;;26.77;;
75971;SDS011;64651;47.540;19.088;2022-12-29T20:51:50;56.17;;;24.43;;
75971;SDS011;64651;47.540;19.088;2022-12-29T20:57:07;63.45;;;26.52;;
75971;SDS011;64651;47.540;19.088;2022-12-29T21:02:17;57.88;;;25.52;;
75971;SDS011;64651;47.540;19.088;2022-12-29T21:07:21;64.80;;;27.87;;
75971;SDS011;64651;47.540;19.088;2022-12-29T21:12:24;55.33;;;25.92;;
75971;SDS011;64651;47.540;19.088;2022-12-29T21:17:26;59.57;;;26.53;;
75971;SDS011;64651;47.540;19.088;2022-12-29T21:27:49;54.58;;;24.12;;
75971;SDS011;64651;47.540;19.088;2022-12-29T21:32:54;53.63;;;23.93;;
75971;SDS011;64651;47.540;19.088;2022-12-29T21:37:56;52.55;;;24.52;;
75971;SDS011;64651;47.540;19.088;2022-12-29T21:42:58;56.20;;;25.03;;
75971;SDS011;64651;47.540;19.088;2022-12-29T21:48:04;59.58;;;25.75;;
75971;SDS011;64651;47.540;19.088;2022-12-29T21:53:23;60.97;;;27.00;;
75971;SDS011;64651;47.540;19.088;2022-12-29T21:58:40;59.27;;;25.93;;
75971;SDS011;64651;47.540;19.088;2022-12-29T22:04:04;59.83;;;27.50;;
75971;SDS011;64651;47.540;19.088;2022-12-29T22:09:25;63.20;;;27.50;;
75971;SDS011;64651;47.540;19.088;2022-12-29T22:14:47;63.00;;;28.30;;
75971;SDS011;64651;47.540;19.088;2022-12-29T22:19:50;58.20;;;27.00;;
75971;SDS011;64651;47.540;19.088;2022-12-29T22:24:52;68.30;;;27.10;;
75971;SDS011;64651;47.540;19.088;2022-12-29T22:29:54;60.80;;;26.27;;
75971;SDS011;64651;47.540;19.088;2022-12-29T22:34:57;59.93;;;27.20;;
75971;SDS011;64651;47.540;19.088;2022-12-29T22:40:08;66.82;;;28.30;;
75971;SDS011;64651;47.540;19.088;2022-12-29T22:45:12;68.97;;;29.00;;
75971;SDS011;64651;47.540;19.088;2022-12-29T22:50:14;60.30;;;27.40;;
75971;SDS011;64651;47.540;19.088;2022-12-29T22:55:16;64.57;;;29.15;;
75971;SDS011;64651;47.540;19.088;2022-12-29T23:00:19;68.87;;;31.80;;
75971;SDS011;64651;47.540;19.088;2022-12-29T23:05:21;66.62;;;30.40;;
75971;SDS011;64651;47.540;19.088;2022-12-29T23:10:23;61.37;;;27.73;;
75971;SDS011;64651;47.540;19.088;2022-12-29T23:15:25;66.33;;;29.33;;
75971;SDS011;64651;47.540;19.088;2022-12-29T23:20:28;64.82;;;29.90;;
75971;SDS011;64651;47.540;19.088;2022-12-29T23:25:30;64.30;;;28.67;;
75971;SDS011;64651;47.540;19.088;2022-12-29T23:30:33;60.55;;;27.90;;
75971;SDS011;64651;47.540;19.088;2022-12-29T23:35:35;58.63;;;27.77;;
75971;SDS011;64651;47.540;19.088;2022-12-29T23:40:38;59.77;;;27.77;;
75971;SDS011;64651;47.540;19.088;2022-12-29T23:45:40;60.42;;;27.70;;
75971;SDS011;64651;47.540;19.088;2022-12-29T23:50:51;56.57;;;27.90;;
75971;SDS011;64651;47.540;19.088;2022-12-29T23:55:54;61.72;;;26.92;;
